createdAt,value
2023-10-01T00:01:46.319Z,3.37
2023-10-01T00:04:15.147Z,3.47
2023-10-01T00:06:42.083Z,3.40
2023-10-01T00:09:09.475Z,3.20
2023-10-01T00:11:40.168Z,3.00
2023-10-01T00:14:22.387Z,3.67
2023-10-01T00:16:55.007Z,3.23
2023-10-01T00:19:23.427Z,3.30
2023-10-01T00:21:50.264Z,3.00
2023-10-01T00:24:18.178Z,2.93
2023-10-01T00:26:45.125Z,3.17
2023-10-01T00:29:11.954Z,3.43
2023-10-01T00:31:38.917Z,2.83
2023-10-01T00:34:08.785Z,3.33
2023-10-01T00:36:36.957Z,3.20
2023-10-01T00:39:04.004Z,2.67
2023-10-01T00:41:31.210Z,3.07
2023-10-01T00:44:01.300Z,3.10
2023-10-01T00:46:28.279Z,3.30
2023-10-01T00:48:55.784Z,3.20
2023-10-01T00:51:22.702Z,3.50
2023-10-01T00:53:52.439Z,3.57
2023-10-01T00:56:21.648Z,3.57
2023-10-01T00:58:50.020Z,3.33
2023-10-01T01:01:17.787Z,3.97
2023-10-01T01:03:45.065Z,2.87
2023-10-01T01:06:18.682Z,3.60
2023-10-01T01:08:48.228Z,2.80
2023-10-01T01:11:16.812Z,3.30
2023-10-01T01:13:47.088Z,3.10
2023-10-01T01:16:14.915Z,2.93
2023-10-01T01:18:45.229Z,3.43
2023-10-01T01:21:15.125Z,3.30
2023-10-01T01:23:43.381Z,2.97
2023-10-01T01:26:11.568Z,3.50
2023-10-01T01:28:38.529Z,2.60
2023-10-01T01:31:06.275Z,2.57
2023-10-01T01:33:33.946Z,2.87
2023-10-01T01:36:01.342Z,2.90
2023-10-01T01:38:28.760Z,3.20
2023-10-01T01:40:57.102Z,3.00
2023-10-01T01:43:24.204Z,3.03
2023-10-01T01:45:57.884Z,2.70
2023-10-01T01:48:31.339Z,3.00
2023-10-01T01:51:02.033Z,3.20
2023-10-01T01:53:36.187Z,2.97
2023-10-01T01:56:06.140Z,2.97
2023-10-01T01:58:33.904Z,3.07
2023-10-01T02:01:19.040Z,3.00
2023-10-01T02:03:48.100Z,2.40
2023-10-01T02:06:16.068Z,2.70
2023-10-01T02:08:55.564Z,3.13
2023-10-01T02:11:24.895Z,2.90
2023-10-01T02:13:52.801Z,3.13
2023-10-01T02:16:31.954Z,3.07
2023-10-01T02:19:20.231Z,2.93
2023-10-01T02:21:51.709Z,3.57
2023-10-01T02:24:23.529Z,3.17
2023-10-01T02:26:54.481Z,2.87
2023-10-01T02:29:25.699Z,2.63
2023-10-01T02:31:58.702Z,2.87
2023-10-01T02:34:30.813Z,2.80
2023-10-01T02:36:59.258Z,2.73
2023-10-01T02:39:29.164Z,3.27
2023-10-01T02:42:07.427Z,3.03
2023-10-01T02:44:35.563Z,2.60
2023-10-01T02:47:13.375Z,2.77
2023-10-01T02:49:48.768Z,2.80
2023-10-01T02:52:16.181Z,2.93
2023-10-01T02:54:43.217Z,3.00
2023-10-01T02:57:14.441Z,3.90
2023-10-01T03:00:04.317Z,3.17
2023-10-01T03:02:33.703Z,3.20
2023-10-01T03:05:07.511Z,3.07
2023-10-01T03:07:39.900Z,3.30
2023-10-01T03:10:16.799Z,3.17
2023-10-01T03:12:50.837Z,2.90
2023-10-01T03:15:40.810Z,3.00
2023-10-01T03:18:09.665Z,2.90
2023-10-01T03:20:41.484Z,2.70
2023-10-01T03:23:22.433Z,2.73
2023-10-01T03:26:05.393Z,3.27
2023-10-01T03:28:55.455Z,2.67
2023-10-01T03:31:22.768Z,2.53
2023-10-01T03:33:54.915Z,3.50
2023-10-01T03:36:26.423Z,2.77
2023-10-01T03:39:08.618Z,3.17
2023-10-01T03:41:54.349Z,3.13
2023-10-01T03:44:41.294Z,2.83
2023-10-01T03:47:11.403Z,3.13
2023-10-01T03:49:38.914Z,3.37
2023-10-01T03:52:06.030Z,3.40
2023-10-01T03:54:51.963Z,3.23
2023-10-01T03:57:18.932Z,3.17
2023-10-01T03:59:54.287Z,3.20
2023-10-01T04:02:40.433Z,3.40
2023-10-01T04:05:22.709Z,3.40
2023-10-01T04:07:50.463Z,3.07
2023-10-01T04:10:27.511Z,3.60
2023-10-01T04:13:03.214Z,3.23
2023-10-01T04:15:31.948Z,3.47
2023-10-01T04:18:17.736Z,3.27
2023-10-01T04:20:50.293Z,3.50
2023-10-01T04:23:32.673Z,3.77
2023-10-01T04:26:05.707Z,3.70
2023-10-01T04:28:36.060Z,3.87
2023-10-01T04:31:10.224Z,4.07
2023-10-01T04:33:37.377Z,4.03
2023-10-01T04:36:11.952Z,4.10
2023-10-01T04:38:42.883Z,4.03
2023-10-01T04:41:13.846Z,3.73
2023-10-01T04:43:53.215Z,3.73
2023-10-01T04:46:25.853Z,3.13
2023-10-01T04:48:53.386Z,3.30
2023-10-01T04:51:23.130Z,3.17
2023-10-01T04:53:50.602Z,3.37
2023-10-01T04:56:23.728Z,3.80
2023-10-01T04:58:55.982Z,3.50
2023-10-01T05:01:29.057Z,3.57
2023-10-01T05:03:58.240Z,3.43
2023-10-01T05:06:28.179Z,3.63
2023-10-01T05:08:58.088Z,4.27
2023-10-01T05:11:32.655Z,5.20
2023-10-01T05:14:00.111Z,4.33
2023-10-01T05:16:28.583Z,4.50
2023-10-01T05:19:12.113Z,4.10
2023-10-01T05:21:42.602Z,5.57
2023-10-01T05:24:10.913Z,4.60
2023-10-01T05:26:39.491Z,4.63
2023-10-01T05:29:08.490Z,4.30
2023-10-01T05:31:40.928Z,3.47
2023-10-01T05:34:08.069Z,3.40
2023-10-01T05:36:36.727Z,3.93
2023-10-01T05:39:04.057Z,4.73
2023-10-01T05:41:31.157Z,3.67
2023-10-01T05:43:58.176Z,4.13
2023-10-01T05:46:25.243Z,4.23
2023-10-01T05:48:56.660Z,3.83
2023-10-01T05:51:31.865Z,4.37
2023-10-01T05:54:00.208Z,3.80
2023-10-01T05:56:38.301Z,3.73
2023-10-01T05:59:05.521Z,3.63
2023-10-01T06:01:35.139Z,4.60
2023-10-01T06:04:05.989Z,4.23
2023-10-01T06:06:37.410Z,4.17
2023-10-01T06:09:10.524Z,4.70
2023-10-01T06:11:40.949Z,4.53
2023-10-01T06:14:08.939Z,4.73
2023-10-01T06:16:39.056Z,4.50
2023-10-01T06:19:12.935Z,4.83
2023-10-01T06:21:40.603Z,4.90
2023-10-01T06:24:12.165Z,4.80
2023-10-01T06:26:46.965Z,4.73
2023-10-01T06:29:14.910Z,4.63
2023-10-01T06:31:50.723Z,4.53
2023-10-01T06:34:22.390Z,4.87
2023-10-01T06:36:52.593Z,4.40
2023-10-01T06:39:24.626Z,4.57
2023-10-01T06:41:53.593Z,4.40
2023-10-01T06:44:23.081Z,4.90
2023-10-01T06:46:50.209Z,3.90
2023-10-01T06:49:19.977Z,4.60
2023-10-01T06:51:48.358Z,4.27
2023-10-01T06:54:15.631Z,5.03
2023-10-01T06:56:45.582Z,4.30
2023-10-01T06:59:12.587Z,3.90
2023-10-01T07:01:44.179Z,4.37
2023-10-01T07:04:12.439Z,4.40
2023-10-01T07:06:40.262Z,4.80
2023-10-01T07:09:25.587Z,4.03
2023-10-01T07:11:53.533Z,3.90
2023-10-01T07:14:31.099Z,4.07
2023-10-01T07:17:03.032Z,4.57
2023-10-01T07:19:30.752Z,4.87
2023-10-01T07:22:00.408Z,4.53
2023-10-01T07:24:31.673Z,4.37
2023-10-01T07:27:05.038Z,4.90
2023-10-01T07:29:34.948Z,5.53
2023-10-01T07:32:03.466Z,4.70
2023-10-01T07:34:33.072Z,5.20
2023-10-01T07:37:01.029Z,5.80
2023-10-01T07:39:39.009Z,5.73
2023-10-01T07:42:06.120Z,5.50
2023-10-01T07:44:34.520Z,5.90
2023-10-01T07:47:01.906Z,5.97
2023-10-01T07:49:42.708Z,5.37
2023-10-01T07:52:11.392Z,5.43
2023-10-01T07:54:40.369Z,5.90
2023-10-01T07:57:09.401Z,6.03
2023-10-01T07:59:36.608Z,5.67
2023-10-01T08:02:22.938Z,6.17
2023-10-01T08:04:51.293Z,6.80
2023-10-01T08:07:19.579Z,6.90
2023-10-01T08:10:00.717Z,6.50
2023-10-01T08:12:41.457Z,7.97
2023-10-01T08:15:28.083Z,6.80
2023-10-01T08:17:56.196Z,6.93
2023-10-01T08:20:23.702Z,6.60
2023-10-01T08:23:09.357Z,6.70
2023-10-01T08:25:43.619Z,7.87
2023-10-01T08:28:10.931Z,6.00
2023-10-01T08:30:40.808Z,6.67
2023-10-01T08:33:20.516Z,7.10
2023-10-01T08:36:07.098Z,7.10
2023-10-01T08:38:38.297Z,7.37
2023-10-01T08:41:07.780Z,7.70
2023-10-01T08:43:38.251Z,8.17
2023-10-01T08:46:16.668Z,7.70
2023-10-01T08:48:44.442Z,8.37
2023-10-01T08:51:14.210Z,8.23
2023-10-01T08:53:42.983Z,8.47
2023-10-01T08:56:31.568Z,8.10
2023-10-01T08:59:01.037Z,8.27
2023-10-01T09:01:28.909Z,8.00
2023-10-01T09:03:58.051Z,7.80
2023-10-01T09:06:45.994Z,8.00
2023-10-01T09:09:20.946Z,7.40
2023-10-01T09:11:51.826Z,7.43
2023-10-01T09:14:35.251Z,7.40
2023-10-01T09:17:26.223Z,6.70
2023-10-01T09:19:54.264Z,7.30
2023-10-01T09:22:42.009Z,8.27
2023-10-01T09:25:20.263Z,8.43
2023-10-01T09:27:59.310Z,7.17
2023-10-01T09:30:27.478Z,7.73
2023-10-01T09:32:55.722Z,8.73
2023-10-01T09:35:39.719Z,8.90
2023-10-01T09:38:12.317Z,15.80
2023-10-01T09:40:43.006Z,8.03
2023-10-01T09:43:25.774Z,8.23
2023-10-01T09:45:54.658Z,8.43
2023-10-01T09:48:34.566Z,7.10
2023-10-01T09:51:09.589Z,8.03
2023-10-01T09:53:45.406Z,7.50
2023-10-01T09:56:14.828Z,8.53
2023-10-01T09:58:47.934Z,7.53
2023-10-01T10:01:19.073Z,7.67
2023-10-01T10:03:48.467Z,8.57
2023-10-01T10:06:25.857Z,7.73
2023-10-01T10:09:04.238Z,7.23
2023-10-01T10:11:33.182Z,7.53
2023-10-01T10:14:01.658Z,6.57
2023-10-01T10:16:31.554Z,6.50
2023-10-01T10:19:29.034Z,6.37
2023-10-01T10:22:17.887Z,5.90
2023-10-01T10:24:49.199Z,7.17
2023-10-01T10:27:49.555Z,7.30
2023-10-01T10:30:21.692Z,6.83
2023-10-01T10:33:40.065Z,6.50
2023-10-01T10:36:51.797Z,6.97
2023-10-01T10:39:54.279Z,6.23
2023-10-01T10:42:30.816Z,8.03
2023-10-01T10:45:27.447Z,6.50
2023-10-01T10:48:01.315Z,6.40
2023-10-01T10:50:46.777Z,8.27
2023-10-01T10:53:18.207Z,7.13
2023-10-01T10:55:55.746Z,6.57
2023-10-01T10:58:26.220Z,6.10
2023-10-01T11:00:54.918Z,7.00
2023-10-01T11:03:42.392Z,6.17
2023-10-01T11:06:20.932Z,6.67
2023-10-01T11:08:52.441Z,7.17
2023-10-01T11:11:37.945Z,5.70
2023-10-01T11:14:17.218Z,6.20
2023-10-01T11:16:48.023Z,6.13
2023-10-01T11:19:17.801Z,6.47
2023-10-01T11:22:02.007Z,6.97
2023-10-01T11:24:31.422Z,6.20
2023-10-01T11:27:24.112Z,5.83
2023-10-01T11:30:22.641Z,5.27
2023-10-01T11:33:15.538Z,5.97
2023-10-01T11:36:10.995Z,5.30
2023-10-01T11:38:40.275Z,5.20
2023-10-01T11:41:09.406Z,5.53
2023-10-01T11:43:42.458Z,5.37
2023-10-01T11:46:25.617Z,6.60
2023-10-01T11:49:02.056Z,7.07
2023-10-01T11:51:42.237Z,5.97
2023-10-01T11:54:10.452Z,6.90
2023-10-01T11:56:39.411Z,5.87
2023-10-01T11:59:18.948Z,5.57
2023-10-01T12:01:51.288Z,6.30
2023-10-01T12:04:40.981Z,5.90
2023-10-01T12:07:16.848Z,5.93
2023-10-01T12:09:51.792Z,5.73
2023-10-01T12:12:20.396Z,5.70
2023-10-01T12:14:56.809Z,6.67
2023-10-01T12:17:29.005Z,5.50
2023-10-01T12:20:00.088Z,5.30
2023-10-01T12:22:30.914Z,6.20
2023-10-01T12:24:59.536Z,6.07
2023-10-01T12:27:38.499Z,6.33
2023-10-01T12:30:11.725Z,5.93
2023-10-01T12:32:43.169Z,6.10
2023-10-01T12:35:28.556Z,6.27
2023-10-01T12:38:06.673Z,6.00
2023-10-01T12:40:37.541Z,6.23
2023-10-01T12:43:25.478Z,5.93
2023-10-01T12:45:52.486Z,6.27
2023-10-01T12:48:22.208Z,5.77
2023-10-01T12:51:04.340Z,5.90
2023-10-01T12:53:48.810Z,5.97
2023-10-01T12:56:16.949Z,6.03
2023-10-01T12:58:54.722Z,6.07
2023-10-01T13:01:34.040Z,6.10
2023-10-01T13:04:19.886Z,6.83
2023-10-01T13:06:48.554Z,5.93
2023-10-01T13:09:38.871Z,5.50
2023-10-01T13:12:15.497Z,6.00
2023-10-01T13:14:44.240Z,6.23
2023-10-01T13:17:21.201Z,8.63
2023-10-01T13:19:49.867Z,5.60
2023-10-01T13:22:20.090Z,6.00
2023-10-01T13:24:55.197Z,5.63
2023-10-01T13:27:22.690Z,6.27
2023-10-01T13:29:50.569Z,5.77
2023-10-01T13:32:19.107Z,10.63
2023-10-01T13:34:50.104Z,6.37
2023-10-01T13:37:33.610Z,6.07
2023-10-01T13:40:36.095Z,6.23
2023-10-01T13:43:21.571Z,6.07
2023-10-01T13:46:07.114Z,6.40
2023-10-01T13:48:52.771Z,6.33
2023-10-01T13:51:38.264Z,6.27
2023-10-01T13:54:25.186Z,5.87
2023-10-01T13:57:10.864Z,6.87
2023-10-01T14:00:07.008Z,5.67
2023-10-01T14:02:52.541Z,6.30
2023-10-01T14:05:38.142Z,5.97
2023-10-01T14:08:24.292Z,6.73
2023-10-01T14:10:54.526Z,5.53
2023-10-01T14:13:36.968Z,6.77
2023-10-01T14:16:19.067Z,7.77
2023-10-01T14:18:56.112Z,6.07
2023-10-01T14:21:26.152Z,6.57
2023-10-01T14:23:53.530Z,5.63
2023-10-01T14:26:37.514Z,6.30
2023-10-01T14:29:07.104Z,6.30
2023-10-01T14:31:50.000Z,6.73
2023-10-01T14:34:21.515Z,6.17
2023-10-01T14:36:52.880Z,6.17
2023-10-01T14:39:19.928Z,6.17
2023-10-01T14:41:48.517Z,5.50
2023-10-01T14:44:16.706Z,5.73
2023-10-01T14:46:49.746Z,6.00
2023-10-01T14:49:19.573Z,6.10
2023-10-01T14:51:57.562Z,6.00
2023-10-01T14:54:26.610Z,5.93
2023-10-01T14:56:58.196Z,6.00
2023-10-01T14:59:31.697Z,5.77
2023-10-01T15:01:59.757Z,5.83
2023-10-01T15:04:31.068Z,5.80
2023-10-01T15:06:59.294Z,6.13
2023-10-01T15:09:27.959Z,5.83
2023-10-01T15:11:57.133Z,6.07
2023-10-01T15:14:29.342Z,6.10
2023-10-01T15:17:10.798Z,5.77
2023-10-01T15:19:49.178Z,5.93
2023-10-01T15:22:19.241Z,5.60
2023-10-01T15:24:47.465Z,5.90
2023-10-01T15:27:25.612Z,6.23
2023-10-01T15:29:54.004Z,6.03
2023-10-01T15:32:21.487Z,5.93
2023-10-01T15:34:57.628Z,6.53
2023-10-01T15:37:30.893Z,6.20
2023-10-01T15:40:02.063Z,5.97
2023-10-01T15:42:36.362Z,10.57
2023-10-01T15:45:17.537Z,6.33
2023-10-01T15:47:48.677Z,5.47
2023-10-01T15:50:19.117Z,6.63
2023-10-01T15:52:47.788Z,5.73
2023-10-01T15:55:16.882Z,6.80
2023-10-01T15:57:55.072Z,7.00
2023-10-01T16:00:30.871Z,5.47
2023-10-01T16:03:04.069Z,5.90
2023-10-01T16:05:32.832Z,6.60
2023-10-01T16:07:59.732Z,5.53
2023-10-01T16:10:26.706Z,6.10
2023-10-01T16:12:54.958Z,5.93
2023-10-01T16:15:23.854Z,6.50
2023-10-01T16:17:52.558Z,6.93
2023-10-01T16:20:33.065Z,6.60
2023-10-01T16:23:00.906Z,5.90
2023-10-01T16:25:28.126Z,6.97
2023-10-01T16:27:59.701Z,6.00
2023-10-01T16:30:30.778Z,6.00
2023-10-01T16:32:58.153Z,5.97
2023-10-01T16:35:29.512Z,6.00
2023-10-01T16:37:58.516Z,6.60
2023-10-01T16:40:27.260Z,6.37
2023-10-01T16:43:01.010Z,6.03
2023-10-01T16:45:30.771Z,6.47
2023-10-01T16:48:03.834Z,7.07
2023-10-01T16:50:50.022Z,6.20
2023-10-01T16:53:20.043Z,6.37
2023-10-01T16:55:49.773Z,6.27
2023-10-01T16:58:18.760Z,6.83
2023-10-01T17:00:45.915Z,5.77
2023-10-01T17:03:13.294Z,5.97
2023-10-01T17:05:41.883Z,6.43
2023-10-01T17:08:15.463Z,7.73
2023-10-01T17:10:43.515Z,6.60
2023-10-01T17:13:13.063Z,5.83
2023-10-01T17:15:42.867Z,6.30
2023-10-01T17:18:15.244Z,6.13
2023-10-01T17:20:43.655Z,7.17
2023-10-01T17:23:12.509Z,6.67
2023-10-01T17:25:47.067Z,6.03
2023-10-01T17:28:24.715Z,5.83
2023-10-01T17:30:53.506Z,5.97
2023-10-01T17:33:20.378Z,6.13
2023-10-01T17:35:48.828Z,6.13
2023-10-01T17:38:20.629Z,6.53
2023-10-01T17:40:50.938Z,6.13
2023-10-01T17:43:28.406Z,6.47
2023-10-01T17:46:04.758Z,6.77
2023-10-01T17:48:32.246Z,6.83
2023-10-01T17:51:02.466Z,6.83
2023-10-01T17:53:31.575Z,7.37
2023-10-01T17:55:58.769Z,6.40
2023-10-01T17:58:25.688Z,7.33
2023-10-01T18:00:53.784Z,6.60
2023-10-01T18:03:28.631Z,6.73
2023-10-01T18:06:07.347Z,6.40
2023-10-01T18:08:36.744Z,6.47
2023-10-01T18:11:15.081Z,6.83
2023-10-01T18:13:43.569Z,6.73
2023-10-01T18:16:23.345Z,6.53
2023-10-01T18:18:51.624Z,6.37
2023-10-01T18:21:18.563Z,6.90
2023-10-01T18:23:45.477Z,6.47
2023-10-01T18:26:13.272Z,6.43
2023-10-01T18:28:40.656Z,6.57
2023-10-01T18:31:15.244Z,6.03
2023-10-01T18:33:46.702Z,6.30
2023-10-01T18:36:21.355Z,7.07
2023-10-01T18:38:51.378Z,7.43
2023-10-01T18:41:25.627Z,7.30
2023-10-01T18:43:52.817Z,6.60
2023-10-01T18:46:19.991Z,7.13
2023-10-01T18:48:46.959Z,8.20
2023-10-01T18:51:15.493Z,8.83
2023-10-01T18:53:43.197Z,6.80
2023-10-01T18:56:11.716Z,6.77
2023-10-01T18:58:39.889Z,5.93
2023-10-01T19:01:07.270Z,10.23
2023-10-01T19:03:35.332Z,8.57
2023-10-01T19:06:02.565Z,7.60
2023-10-01T19:08:32.750Z,7.20
2023-10-01T19:11:01.351Z,6.80
2023-10-01T19:13:31.355Z,6.03
2023-10-01T19:15:58.632Z,5.77
2023-10-01T19:18:28.495Z,6.20
2023-10-01T19:20:55.944Z,6.60
2023-10-01T19:23:31.693Z,6.53
2023-10-01T19:26:01.828Z,6.23
2023-10-01T19:28:29.299Z,5.97
2023-10-01T19:30:57.877Z,6.40
2023-10-01T19:33:28.839Z,6.70
2023-10-01T19:35:59.612Z,6.07
2023-10-01T19:38:27.059Z,6.80
2023-10-01T19:40:54.045Z,6.53
2023-10-01T19:43:29.319Z,6.47
2023-10-01T19:45:58.286Z,6.33
2023-10-01T19:48:25.190Z,6.87
2023-10-01T19:50:53.633Z,6.03
2023-10-01T19:53:26.641Z,6.13
2023-10-01T19:56:02.475Z,6.43
2023-10-01T19:58:32.539Z,6.13
2023-10-01T20:01:00.544Z,6.33
2023-10-01T20:03:31.337Z,6.10
2023-10-01T20:05:58.453Z,6.80
2023-10-01T20:08:28.912Z,5.77
2023-10-01T20:10:57.310Z,6.83
2023-10-01T20:13:30.142Z,6.03
2023-10-01T20:16:00.376Z,6.83
2023-10-01T20:18:27.346Z,5.73
2023-10-01T20:20:59.930Z,6.43
2023-10-01T20:23:27.546Z,6.17
2023-10-01T20:25:57.899Z,6.17
2023-10-01T20:28:33.904Z,6.30
2023-10-01T20:31:02.604Z,6.10
2023-10-01T20:33:30.963Z,5.60
2023-10-01T20:35:58.746Z,6.73
2023-10-01T20:38:31.696Z,6.27
2023-10-01T20:41:15.424Z,6.40
2023-10-01T20:43:42.660Z,6.27
2023-10-01T20:46:17.775Z,6.33
2023-10-01T20:48:46.072Z,6.53
2023-10-01T20:51:29.674Z,5.80
2023-10-01T20:53:58.556Z,6.50
2023-10-01T20:56:26.697Z,6.50
2023-10-01T20:58:53.947Z,6.00
2023-10-01T21:01:35.269Z,7.20
2023-10-01T21:04:12.871Z,6.33
2023-10-01T21:06:41.867Z,6.53
2023-10-01T21:09:18.578Z,7.00
2023-10-01T21:11:48.877Z,6.17
2023-10-01T21:14:27.979Z,6.73
2023-10-01T21:16:56.353Z,6.17
2023-10-01T21:19:23.875Z,6.63
2023-10-01T21:21:59.328Z,6.83
2023-10-01T21:24:26.273Z,6.53
2023-10-01T21:26:53.132Z,5.70
2023-10-01T21:29:20.231Z,6.67
2023-10-01T21:31:49.886Z,6.53
2023-10-01T21:34:18.832Z,6.93
2023-10-01T21:36:46.050Z,6.43
2023-10-01T21:39:15.457Z,6.17
2023-10-01T21:41:47.886Z,6.70
2023-10-01T21:44:16.492Z,6.43
2023-10-01T21:46:43.782Z,6.70
2023-10-01T21:49:15.564Z,6.93
2023-10-01T21:51:43.712Z,7.13
2023-10-01T21:54:15.634Z,6.43
2023-10-01T21:56:46.918Z,6.97
2023-10-01T21:59:16.655Z,6.50
2023-10-01T22:01:48.306Z,6.10
2023-10-01T22:04:16.771Z,6.93
2023-10-01T22:06:52.132Z,6.90
2023-10-01T22:09:24.591Z,6.47
2023-10-01T22:11:53.183Z,7.23
2023-10-01T22:14:22.104Z,6.97
2023-10-01T22:16:53.653Z,7.30
2023-10-01T22:19:21.476Z,6.67
2023-10-01T22:21:51.457Z,7.00
2023-10-01T22:24:22.778Z,7.03
2023-10-01T22:26:50.835Z,6.80
2023-10-01T22:29:18.863Z,7.23
2023-10-01T22:31:46.968Z,7.47
2023-10-01T22:34:15.343Z,6.97
2023-10-01T22:36:48.471Z,7.10
2023-10-01T22:39:16.956Z,6.57
2023-10-01T22:41:45.626Z,6.97
2023-10-01T22:44:23.161Z,6.70
2023-10-01T22:46:51.977Z,6.47
2023-10-01T22:49:22.598Z,7.27
2023-10-01T22:51:56.768Z,6.73
2023-10-01T22:54:25.123Z,6.47
2023-10-01T22:56:52.488Z,6.33
2023-10-01T22:59:21.389Z,7.10
2023-10-01T23:01:59.139Z,6.60
2023-10-01T23:04:27.251Z,6.27
2023-10-01T23:06:54.883Z,6.47
2023-10-01T23:09:22.360Z,7.53
2023-10-01T23:11:55.021Z,6.73
2023-10-01T23:14:22.760Z,6.40
2023-10-01T23:16:50.429Z,6.07
2023-10-01T23:19:33.396Z,7.00
2023-10-01T23:22:04.655Z,6.83
2023-10-01T23:24:52.831Z,6.57
2023-10-01T23:27:24.535Z,7.10
2023-10-01T23:29:54.137Z,6.70
2023-10-01T23:32:25.643Z,7.03
2023-10-01T23:34:53.710Z,7.43
2023-10-01T23:37:33.225Z,6.83
2023-10-01T23:40:09.058Z,6.50
2023-10-01T23:42:46.940Z,6.87
2023-10-01T23:45:16.684Z,6.70
2023-10-01T23:47:44.477Z,6.83
2023-10-01T23:50:31.625Z,6.10
2023-10-01T23:53:07.586Z,7.67
2023-10-01T23:55:36.411Z,8.03
2023-10-01T23:58:25.013Z,7.50
